createdAt,value
2019-02-07T00:00:58.297Z,48.70
2019-02-07T00:04:02.266Z,46.80
2019-02-07T00:07:06.243Z,45.60
2019-02-07T00:10:10.764Z,42.20
2019-02-07T00:13:14.570Z,48.70
2019-02-07T00:16:18.493Z,45.33
2019-02-07T00:19:22.305Z,46.57
2019-02-07T00:22:26.175Z,51.97
2019-02-07T00:25:30.076Z,47.70
2019-02-07T00:28:34.044Z,43.27
2019-02-07T00:31:37.934Z,44.40
2019-02-07T00:34:41.835Z,43.57
2019-02-07T00:37:46.003Z,50.40
2019-02-07T00:40:49.881Z,48.27
2019-02-07T00:43:53.718Z,41.50
2019-02-07T00:46:57.578Z,51.30
2019-02-07T00:50:01.387Z,48.93
2019-02-07T00:53:05.337Z,45.57
2019-02-07T00:56:09.256Z,42.83
2019-02-07T00:59:13.084Z,49.17
2019-02-07T01:02:16.994Z,43.27
2019-02-07T01:05:22.139Z,39.13
2019-02-07T01:08:26.113Z,44.13
2019-02-07T01:11:29.926Z,41.87
2019-02-07T01:14:33.902Z,41.60
2019-02-07T01:17:37.881Z,39.47
2019-02-07T01:20:41.845Z,40.40
2019-02-07T01:23:45.781Z,40.37
2019-02-07T01:26:49.714Z,40.40
2019-02-07T01:29:53.662Z,39.00
2019-02-07T01:32:57.619Z,38.97
2019-02-07T01:36:01.447Z,40.50
2019-02-07T01:39:08.405Z,39.13
2019-02-07T01:42:12.243Z,37.83
2019-02-07T01:45:18.639Z,37.10
2019-02-07T01:48:22.620Z,37.73
2019-02-07T01:51:26.611Z,37.60
2019-02-07T01:54:30.486Z,40.90
2019-02-07T01:57:34.362Z,34.40
2019-02-07T02:00:38.266Z,37.33
2019-02-07T02:03:42.133Z,41.43
2019-02-07T02:06:45.939Z,36.57
2019-02-07T02:09:49.961Z,35.83
2019-02-07T02:12:54.167Z,38.47
2019-02-07T02:15:58.118Z,38.77
2019-02-07T02:19:02.043Z,39.87
2019-02-07T02:22:06.388Z,35.80
2019-02-07T02:25:10.824Z,37.43
2019-02-07T02:28:14.689Z,38.40
2019-02-07T02:31:18.942Z,35.20
2019-02-07T02:34:22.740Z,38.27
2019-02-07T02:37:26.741Z,38.10
2019-02-07T02:40:30.994Z,37.67
2019-02-07T02:43:34.841Z,37.83
2019-02-07T02:46:38.811Z,35.37
2019-02-07T02:49:43.082Z,38.27
2019-02-07T02:52:47.099Z,35.10
2019-02-07T02:55:52.067Z,35.43
2019-02-07T02:58:56.138Z,34.40
2019-02-07T03:02:37.155Z,34.87
2019-02-07T03:05:55.040Z,33.13
2019-02-07T03:09:17.465Z,32.53
2019-02-07T03:12:35.526Z,30.13
2019-02-07T03:15:58.427Z,29.30
2019-02-07T03:19:19.963Z,30.37
2019-02-07T03:22:42.732Z,29.77
2019-02-07T03:26:05.633Z,27.90
2019-02-07T03:29:34.717Z,28.30
2019-02-07T03:32:55.179Z,27.37
2019-02-07T03:36:30.135Z,27.40
2019-02-07T03:39:59.375Z,27.53
2019-02-07T03:43:12.954Z,27.70
2019-02-07T03:46:41.829Z,27.47
2019-02-07T03:50:11.479Z,26.37
2019-02-07T03:53:35.868Z,28.07
2019-02-07T03:56:57.751Z,29.73
2019-02-07T04:00:20.671Z,28.00
2019-02-07T04:03:46.699Z,29.07
2019-02-07T04:07:15.188Z,29.77
2019-02-07T04:10:56.488Z,30.87
2019-02-07T04:14:13.125Z,28.70
2019-02-07T04:17:38.861Z,29.20
2019-02-07T04:21:00.662Z,28.13
2019-02-07T04:24:13.427Z,31.27
2019-02-07T04:27:45.834Z,30.67
2019-02-07T04:31:08.180Z,31.40
2019-02-07T04:34:36.431Z,31.07
2019-02-07T04:38:08.701Z,31.07
2019-02-07T04:41:26.546Z,30.60
2019-02-07T04:44:49.637Z,31.00
2019-02-07T04:48:06.854Z,31.13
2019-02-07T04:51:27.623Z,31.03
2019-02-07T04:54:56.226Z,31.63
2019-02-07T04:58:18.297Z,32.10
2019-02-07T05:01:34.806Z,31.03
2019-02-07T05:05:03.680Z,31.03
2019-02-07T05:08:26.604Z,32.33
2019-02-07T05:11:49.492Z,32.77
2019-02-07T05:15:30.703Z,31.60
2019-02-07T05:18:46.372Z,32.20
2019-02-07T05:22:08.014Z,32.13
2019-02-07T05:25:32.498Z,30.43
2019-02-07T05:29:07.920Z,31.13
2019-02-07T05:32:20.569Z,30.47
2019-02-07T05:35:42.446Z,29.97
2019-02-07T05:39:20.647Z,28.87
2019-02-07T05:42:43.505Z,27.40
2019-02-07T05:46:07.652Z,28.80
2019-02-07T05:49:42.364Z,29.20
2019-02-07T05:53:17.404Z,29.67
2019-02-07T05:56:29.544Z,27.40
2019-02-07T06:00:04.482Z,27.10
2019-02-07T06:03:30.269Z,27.17
2019-02-07T06:06:48.399Z,27.93
2019-02-07T06:10:10.875Z,27.80
2019-02-07T06:13:33.743Z,28.03
2019-02-07T06:17:02.649Z,27.77
2019-02-07T06:20:12.558Z,27.57
2019-02-07T06:23:30.734Z,26.77
2019-02-07T06:26:54.867Z,28.23
2019-02-07T06:30:12.635Z,27.90
2019-02-07T06:33:26.346Z,27.37
2019-02-07T06:36:48.335Z,27.87
2019-02-07T06:40:04.938Z,28.60
2019-02-07T06:43:20.723Z,27.27
2019-02-07T06:46:42.455Z,29.93
2019-02-07T06:49:58.699Z,27.40
2019-02-07T06:53:27.333Z,31.23
2019-02-07T06:57:08.828Z,28.93
2019-02-07T07:00:38.517Z,31.03
2019-02-07T07:04:16.631Z,32.30
2019-02-07T07:07:30.980Z,34.07
2019-02-07T07:11:00.348Z,36.00
2019-02-07T07:14:12.884Z,34.13
2019-02-07T07:17:27.866Z,34.83
2019-02-07T07:20:53.713Z,37.73
2019-02-07T07:24:15.189Z,36.53
2019-02-07T07:27:41.186Z,36.87
2019-02-07T07:31:13.617Z,36.87
2019-02-07T07:34:39.764Z,36.80
2019-02-07T07:37:55.252Z,36.23
2019-02-07T07:41:17.191Z,36.63
2019-02-07T07:44:38.723Z,36.13
2019-02-07T07:48:00.098Z,34.50
2019-02-07T07:51:28.969Z,33.33
2019-02-07T07:54:50.686Z,33.37
2019-02-07T07:58:13.563Z,34.73
2019-02-07T08:01:40.553Z,33.30
2019-02-07T08:04:57.683Z,33.37
2019-02-07T08:08:19.441Z,32.43
2019-02-07T08:11:57.664Z,33.90
2019-02-07T08:15:08.487Z,33.33
2019-02-07T08:18:37.179Z,30.50
2019-02-07T08:21:55.211Z,31.53
2019-02-07T08:25:17.202Z,29.57
2019-02-07T08:28:42.799Z,30.33
2019-02-07T08:32:11.928Z,29.23
2019-02-07T08:35:33.658Z,28.27
2019-02-07T08:38:59.736Z,28.80
2019-02-07T08:42:32.841Z,29.10
2019-02-07T08:46:05.024Z,28.73
2019-02-07T08:49:34.729Z,29.47
2019-02-07T08:53:09.589Z,28.00
2019-02-07T08:56:31.117Z,29.03
2019-02-07T08:59:52.774Z,26.90
2019-02-07T09:03:14.395Z,27.97
2019-02-07T09:06:40.146Z,26.77
2019-02-07T09:10:08.928Z,27.50
2019-02-07T09:13:22.399Z,28.30
2019-02-07T09:16:45.943Z,27.43
2019-02-07T09:20:09.407Z,28.13
2019-02-07T09:23:38.068Z,26.97
2019-02-07T09:26:59.786Z,26.87
2019-02-07T09:30:23.369Z,26.97
2019-02-07T09:33:39.594Z,25.23
2019-02-07T09:37:02.431Z,26.10
2019-02-07T09:40:29.612Z,26.13
2019-02-07T09:43:49.612Z,25.00
2019-02-07T09:47:11.410Z,23.30
2019-02-07T09:50:27.219Z,24.17
2019-02-07T09:53:39.436Z,24.37
2019-02-07T09:57:04.460Z,25.10
2019-02-07T10:00:32.648Z,23.90
2019-02-07T10:04:00.688Z,24.10
2019-02-07T10:07:15.151Z,25.77
2019-02-07T10:10:30.451Z,24.10
2019-02-07T10:13:51.951Z,25.47
2019-02-07T10:17:13.946Z,24.67
2019-02-07T10:20:40.840Z,25.00
2019-02-07T10:24:03.907Z,24.37
2019-02-07T10:27:35.889Z,24.00
2019-02-07T10:30:59.839Z,25.30
2019-02-07T10:34:21.779Z,25.40
2019-02-07T10:37:51.192Z,26.17
2019-02-07T10:41:06.053Z,23.90
2019-02-07T10:44:21.232Z,26.07
2019-02-07T10:47:37.631Z,26.53
2019-02-07T10:50:59.148Z,24.10
2019-02-07T10:54:25.097Z,25.20
2019-02-07T10:57:48.267Z,23.77
2019-02-07T11:01:14.745Z,24.73
2019-02-07T11:04:41.115Z,24.53
2019-02-07T11:07:58.446Z,25.63
2019-02-07T11:11:20.208Z,23.63
2019-02-07T11:14:46.229Z,24.73
2019-02-07T11:18:01.482Z,22.53
2019-02-07T11:21:18.878Z,24.27
2019-02-07T11:24:40.120Z,24.90
2019-02-07T11:28:10.719Z,20.50
2019-02-07T11:31:22.250Z,21.93
2019-02-07T11:34:47.167Z,24.57
2019-02-07T11:37:59.450Z,25.17
2019-02-07T11:41:35.972Z,24.90
2019-02-07T11:45:07.780Z,23.50
2019-02-07T11:48:20.238Z,25.13
2019-02-07T11:51:47.353Z,20.27
2019-02-07T11:55:13.225Z,15.40
2019-02-07T11:58:30.309Z,18.20
2019-02-07T12:01:51.898Z,19.30
2019-02-07T12:05:13.638Z,16.17
2019-02-07T12:08:28.728Z,13.87
2019-02-07T12:11:48.716Z,12.37
2019-02-07T12:15:01.642Z,9.43
2019-02-07T12:18:20.898Z,8.73
2019-02-07T12:21:42.500Z,7.17
2019-02-07T12:25:04.278Z,6.10
2019-02-07T12:28:27.159Z,6.47
2019-02-07T12:31:40.849Z,5.20
2019-02-07T12:35:02.530Z,5.10
2019-02-07T12:38:30.056Z,4.90
2019-02-07T12:41:47.776Z,3.60
2019-02-07T12:45:05.115Z,2.43
2019-02-07T12:48:21.036Z,3.47
2019-02-07T12:51:36.166Z,2.73
2019-02-07T12:55:01.909Z,2.97
2019-02-07T12:58:23.643Z,2.93
2019-02-07T13:01:46.607Z,2.73
2019-02-07T13:05:08.094Z,2.47
2019-02-07T13:08:37.188Z,3.37
2019-02-07T13:11:51.727Z,2.43
2019-02-07T13:15:03.299Z,3.10
2019-02-07T13:18:35.119Z,3.60
2019-02-07T13:22:04.159Z,2.70
2019-02-07T13:25:30.868Z,2.67
2019-02-07T13:28:53.866Z,2.17
2019-02-07T13:32:15.676Z,3.53
2019-02-07T13:35:44.455Z,2.57
2019-02-07T13:38:56.559Z,2.10
2019-02-07T13:42:14.615Z,2.63
2019-02-07T13:45:39.286Z,2.20
2019-02-07T13:49:05.146Z,2.87
2019-02-07T13:52:28.135Z,2.80
2019-02-07T13:56:00.392Z,3.90
2019-02-07T13:59:38.912Z,2.30
2019-02-07T14:02:58.049Z,3.77
2019-02-07T14:06:22.215Z,2.67
2019-02-07T14:09:57.162Z,2.73
2019-02-07T14:13:18.941Z,2.43
2019-02-07T14:16:33.899Z,2.63
2019-02-07T14:20:04.061Z,3.17
2019-02-07T14:23:30.367Z,2.40
2019-02-07T14:26:52.060Z,2.43
2019-02-07T14:30:21.114Z,3.00
2019-02-07T14:33:42.856Z,1.93
2019-02-07T14:37:11.747Z,2.40
2019-02-07T14:40:32.675Z,2.77
2019-02-07T14:44:01.369Z,2.17
2019-02-07T14:47:05.376Z,3.17
2019-02-07T14:50:14.871Z,3.00
2019-02-07T14:53:15.373Z,2.37
2019-02-07T14:56:19.273Z,2.50
2019-02-07T14:59:23.484Z,2.83
2019-02-07T15:02:27.304Z,2.50
2019-02-07T15:05:31.568Z,2.70
2019-02-07T15:08:35.847Z,2.17
2019-02-07T15:11:39.715Z,2.33
2019-02-07T15:14:43.593Z,2.33
2019-02-07T15:17:47.983Z,3.13
2019-02-07T15:20:51.867Z,2.40
2019-02-07T15:23:55.708Z,2.87
2019-02-07T15:26:59.874Z,2.80
2019-02-07T15:30:05.296Z,2.03
2019-02-07T15:33:09.167Z,2.63
2019-02-07T15:36:13.508Z,3.00
2019-02-07T15:39:19.133Z,2.73
2019-02-07T15:42:23.118Z,2.63
2019-02-07T15:45:27.943Z,2.83
2019-02-07T15:48:31.963Z,2.47
2019-02-07T15:51:35.803Z,2.50
2019-02-07T15:54:40.065Z,2.70
2019-02-07T15:57:44.052Z,3.03
2019-02-07T16:00:57.579Z,3.70
2019-02-07T16:04:14.020Z,2.43
2019-02-07T16:07:18.266Z,2.50
2019-02-07T16:10:22.261Z,2.53
2019-02-07T16:13:26.207Z,2.77
2019-02-07T16:16:30.196Z,2.50
2019-02-07T16:19:35.022Z,2.57
2019-02-07T16:22:38.853Z,3.07
2019-02-07T16:25:42.668Z,3.10
2019-02-07T16:28:46.619Z,3.27
2019-02-07T16:31:50.502Z,2.77
2019-02-07T16:34:54.569Z,3.27
2019-02-07T16:37:58.508Z,3.23
2019-02-07T16:41:02.482Z,2.57
2019-02-07T16:44:06.474Z,2.60
2019-02-07T16:47:10.328Z,2.60
2019-02-07T16:50:16.130Z,3.33
2019-02-07T16:53:20.024Z,2.60
2019-02-07T16:56:23.932Z,3.77
2019-02-07T16:59:27.835Z,1.80
2019-02-07T17:02:31.647Z,2.37
2019-02-07T17:05:37.784Z,1.77
2019-02-07T17:08:41.236Z,2.00
2019-02-07T17:11:45.221Z,2.27
2019-02-07T17:14:49.022Z,2.50
2019-02-07T17:17:52.927Z,2.63
2019-02-07T17:20:56.756Z,2.10
2019-02-07T17:24:00.566Z,2.80
2019-02-07T17:27:04.488Z,3.40
2019-02-07T17:30:13.105Z,2.10
2019-02-07T17:33:17.014Z,2.30
2019-02-07T17:36:20.829Z,2.47
2019-02-07T17:39:24.699Z,1.43
2019-02-07T17:42:28.697Z,1.90
2019-02-07T17:45:32.658Z,1.87
2019-02-07T17:48:36.570Z,1.97
2019-02-07T17:51:40.549Z,1.97
2019-02-07T17:54:44.447Z,2.50
2019-02-07T17:57:48.460Z,2.67
2019-02-07T18:01:01.095Z,2.80
2019-02-07T18:04:05.293Z,2.10
2019-02-07T18:07:09.591Z,2.17
2019-02-07T18:10:13.885Z,2.37
2019-02-07T18:13:17.803Z,1.97
2019-02-07T18:16:21.673Z,2.70
2019-02-07T18:19:25.871Z,2.53
2019-02-07T18:22:29.758Z,2.30
2019-02-07T18:25:33.741Z,2.10
2019-02-07T18:28:38.065Z,1.77
2019-02-07T18:31:42.064Z,1.70
2019-02-07T18:34:45.986Z,1.87
2019-02-07T18:37:51.525Z,2.07
2019-02-07T18:40:55.392Z,1.20
2019-02-07T18:43:59.249Z,1.00
2019-02-07T18:47:03.467Z,2.27
2019-02-07T18:50:10.472Z,2.60
2019-02-07T18:53:14.446Z,2.40
2019-02-07T18:56:18.817Z,1.70
2019-02-07T18:59:22.764Z,2.57
2019-02-07T19:02:26.693Z,1.90
2019-02-07T19:05:30.989Z,2.43
2019-02-07T19:08:34.907Z,2.10
2019-02-07T19:11:38.829Z,2.70
2019-02-07T19:14:43.219Z,2.53
2019-02-07T19:17:47.106Z,2.00
2019-02-07T19:20:50.928Z,2.07
2019-02-07T19:23:55.178Z,3.33
2019-02-07T19:26:59.076Z,2.47
2019-02-07T19:30:03.070Z,1.90
2019-02-07T19:33:07.362Z,3.33
2019-02-07T19:36:11.269Z,2.57
2019-02-07T19:39:15.241Z,2.07
2019-02-07T19:42:19.141Z,2.67
2019-02-07T19:45:23.208Z,1.93
2019-02-07T19:48:27.035Z,2.70
2019-02-07T19:51:31.007Z,2.93
2019-02-07T19:54:34.865Z,2.30
2019-02-07T19:57:38.713Z,2.60
2019-02-07T20:00:42.691Z,2.53
2019-02-07T20:03:46.598Z,2.37
2019-02-07T20:06:50.420Z,3.10
2019-02-07T20:09:54.264Z,2.53
2019-02-07T20:12:58.292Z,3.10
2019-02-07T20:16:02.211Z,2.70
2019-02-07T20:19:06.193Z,3.37
2019-02-07T20:22:19.874Z,5.63
2019-02-07T20:25:15.991Z,3.83
2019-02-07T20:28:19.964Z,4.50
2019-02-07T20:31:23.785Z,4.53
2019-02-07T20:34:27.657Z,4.47
2019-02-07T20:37:31.471Z,3.77
2019-02-07T20:40:35.558Z,3.93
2019-02-07T20:43:39.717Z,4.60
2019-02-07T20:46:43.614Z,4.73
2019-02-07T20:49:47.435Z,3.97
2019-02-07T20:52:52.358Z,5.20
2019-02-07T20:55:56.329Z,4.57
2019-02-07T20:59:00.174Z,6.00
2019-02-07T21:02:04.643Z,4.60
2019-02-07T21:05:10.047Z,4.57
2019-02-07T21:08:14.545Z,3.10
2019-02-07T21:11:18.468Z,4.87
2019-02-07T21:14:22.291Z,5.10
2019-02-07T21:17:26.217Z,5.63
2019-02-07T21:20:30.417Z,3.30
2019-02-07T21:23:34.261Z,5.03
2019-02-07T21:26:38.114Z,5.23
2019-02-07T21:29:42.096Z,5.43
2019-02-07T21:32:45.975Z,4.73
2019-02-07T21:35:49.907Z,3.53
2019-02-07T21:38:53.716Z,4.77
2019-02-07T21:41:57.542Z,5.00
2019-02-07T21:45:01.520Z,5.10
2019-02-07T21:48:08.567Z,5.03
2019-02-07T21:51:12.458Z,6.13
2019-02-07T21:54:16.655Z,5.93
2019-02-07T21:57:20.530Z,4.53
2019-02-07T22:00:30.457Z,6.87
2019-02-07T22:03:34.433Z,6.30
2019-02-07T22:06:38.339Z,4.13
2019-02-07T22:09:42.267Z,3.97
2019-02-07T22:12:46.501Z,4.13
2019-02-07T22:15:50.332Z,4.97
2019-02-07T22:18:54.175Z,5.40
2019-02-07T22:21:58.004Z,5.77
2019-02-07T22:25:01.962Z,4.70
2019-02-07T22:28:06.732Z,5.63
2019-02-07T22:31:10.575Z,4.70
2019-02-07T22:34:14.456Z,3.83
2019-02-07T22:37:18.458Z,3.77
2019-02-07T22:40:23.051Z,4.33
2019-02-07T22:43:26.878Z,4.83
2019-02-07T22:46:30.697Z,5.50
2019-02-07T22:49:34.558Z,5.70
2019-02-07T22:52:38.543Z,3.17
2019-02-07T22:55:42.357Z,4.00
2019-02-07T22:58:46.134Z,4.23
2019-02-07T23:01:55.094Z,3.80
2019-02-07T23:04:58.988Z,4.30
2019-02-07T23:08:02.917Z,5.60
2019-02-07T23:11:08.898Z,3.87
2019-02-07T23:14:13.378Z,3.87
2019-02-07T23:17:17.281Z,3.77
2019-02-07T23:20:21.624Z,3.50
2019-02-07T23:23:25.608Z,5.17
2019-02-07T23:26:29.516Z,5.07
2019-02-07T23:29:33.355Z,4.47
2019-02-07T23:32:37.305Z,4.40
2019-02-07T23:35:41.147Z,4.40
2019-02-07T23:38:45.005Z,3.87
2019-02-07T23:41:48.850Z,3.77
2019-02-07T23:44:52.685Z,4.63
2019-02-07T23:47:56.714Z,4.30
2019-02-07T23:51:00.690Z,4.17
2019-02-07T23:54:05.410Z,4.60
2019-02-07T23:57:09.406Z,4.73
